createdAt,value
2023-02-28T00:01:15.422Z,79.16
2023-02-28T00:03:42.899Z,79.21
2023-02-28T00:06:10.771Z,79.15
2023-02-28T00:08:39.023Z,79.19
2023-02-28T00:11:14.586Z,79.40
2023-02-28T00:13:47.390Z,79.49
2023-02-28T00:16:18.146Z,79.45
2023-02-28T00:18:45.705Z,79.66
2023-02-28T00:21:12.821Z,79.68
2023-02-28T00:23:39.933Z,79.64
2023-02-28T00:26:07.118Z,80.22
2023-02-28T00:28:34.211Z,80.03
2023-02-28T00:31:01.388Z,79.97
2023-02-28T00:33:30.177Z,79.80
2023-02-28T00:36:09.776Z,79.68
2023-02-28T00:38:38.201Z,80.24
2023-02-28T00:41:06.034Z,80.53
2023-02-28T00:43:38.650Z,80.81
2023-02-28T00:46:06.361Z,81.02
2023-02-28T00:48:33.866Z,80.87
2023-02-28T00:51:01.378Z,81.52
2023-02-28T00:53:28.869Z,81.71
2023-02-28T00:55:58.481Z,81.30
2023-02-28T00:58:27.236Z,80.96
2023-02-28T01:00:55.001Z,81.09
2023-02-28T01:03:23.793Z,81.55
2023-02-28T01:05:51.397Z,81.68
2023-02-28T01:08:18.738Z,81.07
2023-02-28T01:10:45.788Z,81.57
2023-02-28T01:13:13.509Z,81.72
2023-02-28T01:15:44.858Z,81.59
2023-02-28T01:18:12.829Z,81.85
2023-02-28T01:20:40.296Z,81.73
2023-02-28T01:23:07.527Z,82.03
2023-02-28T01:25:38.680Z,81.78
2023-02-28T01:28:06.979Z,81.36
2023-02-28T01:30:35.109Z,81.85
2023-02-28T01:33:02.517Z,82.54
2023-02-28T01:35:29.704Z,81.72
2023-02-28T01:38:00.980Z,81.29
2023-02-28T01:40:31.940Z,81.45
2023-02-28T01:42:59.336Z,81.76
2023-02-28T01:45:35.629Z,81.73
2023-02-28T01:48:07.097Z,81.36
2023-02-28T01:50:40.061Z,81.44
2023-02-28T01:53:11.853Z,81.73
2023-02-28T01:55:40.971Z,81.96
2023-02-28T01:58:10.326Z,81.64
2023-02-28T02:00:37.653Z,82.04
2023-02-28T02:03:12.069Z,81.79
2023-02-28T02:05:41.666Z,81.63
2023-02-28T02:08:15.734Z,82.24
2023-02-28T02:11:04.287Z,82.22
2023-02-28T02:13:34.235Z,81.85
2023-02-28T02:16:49.017Z,81.56
2023-02-28T02:19:37.448Z,81.48
2023-02-28T02:22:46.472Z,82.38
2023-02-28T02:25:33.646Z,82.57
2023-02-28T02:28:28.733Z,82.70
2023-02-28T02:31:18.835Z,82.00
2023-02-28T02:34:04.762Z,81.99
2023-02-28T02:36:43.705Z,82.22
2023-02-28T02:39:15.713Z,82.51
2023-02-28T02:41:52.352Z,82.64
2023-02-28T02:44:46.834Z,82.11
2023-02-28T02:47:20.259Z,82.17
2023-02-28T02:50:00.634Z,82.08
2023-02-28T02:52:54.888Z,82.57
2023-02-28T02:55:24.419Z,82.33
2023-02-28T02:58:03.591Z,82.77
2023-02-28T03:00:38.906Z,83.26
2023-02-28T03:03:09.057Z,83.45
2023-02-28T03:05:49.128Z,82.84
2023-02-28T03:08:17.439Z,82.12
2023-02-28T03:10:49.670Z,82.48
2023-02-28T03:13:45.782Z,82.31
2023-02-28T03:16:31.059Z,81.99
2023-02-28T03:19:16.490Z,81.97
2023-02-28T03:21:46.790Z,82.62
2023-02-28T03:24:35.708Z,82.57
2023-02-28T03:27:13.204Z,82.24
2023-02-28T03:29:58.256Z,82.33
2023-02-28T03:32:34.600Z,82.06
2023-02-28T03:35:09.569Z,82.50
2023-02-28T03:37:39.993Z,81.80
2023-02-28T03:40:15.424Z,81.45
2023-02-28T03:42:45.737Z,81.73
2023-02-28T03:45:18.023Z,82.22
2023-02-28T03:47:54.713Z,82.69
2023-02-28T03:50:26.119Z,82.55
2023-02-28T03:53:07.981Z,82.62
2023-02-28T03:55:42.750Z,82.26
2023-02-28T03:58:19.938Z,82.60
2023-02-28T04:00:57.100Z,82.34
2023-02-28T04:03:24.819Z,82.04
2023-02-28T04:05:56.817Z,82.18
2023-02-28T04:08:24.057Z,82.59
2023-02-28T04:10:59.013Z,82.27
2023-02-28T04:13:26.117Z,82.04
2023-02-28T04:15:53.377Z,82.35
2023-02-28T04:18:20.507Z,82.10
2023-02-28T04:20:47.539Z,82.11
2023-02-28T04:23:14.724Z,82.31
2023-02-28T04:25:42.069Z,81.81
2023-02-28T04:28:09.190Z,82.03
2023-02-28T04:30:36.354Z,82.36
2023-02-28T04:33:03.575Z,82.21
2023-02-28T04:35:30.641Z,82.35
2023-02-28T04:37:58.059Z,82.16
2023-02-28T04:40:25.254Z,81.90
2023-02-28T04:42:52.306Z,81.89
2023-02-28T04:45:19.417Z,81.91
2023-02-28T04:47:46.593Z,81.84
2023-02-28T04:50:13.666Z,81.46
2023-02-28T04:52:40.811Z,81.09
2023-02-28T04:55:08.508Z,81.69
2023-02-28T04:57:35.575Z,81.92
2023-02-28T05:00:02.726Z,81.92
2023-02-28T05:02:29.861Z,82.24
2023-02-28T05:04:57.033Z,81.52
2023-02-28T05:07:24.212Z,81.80
2023-02-28T05:09:51.277Z,81.45
2023-02-28T05:12:18.388Z,81.80
2023-02-28T05:14:45.396Z,81.71
2023-02-28T05:17:12.486Z,81.71
2023-02-28T05:19:39.569Z,82.25
2023-02-28T05:22:14.458Z,81.87
2023-02-28T05:24:41.569Z,81.92
2023-02-28T05:27:09.287Z,81.75
2023-02-28T05:29:42.715Z,82.35
2023-02-28T05:32:12.404Z,82.09
2023-02-28T05:34:40.728Z,81.68
2023-02-28T05:37:13.537Z,81.68
2023-02-28T05:39:40.967Z,82.01
2023-02-28T05:42:08.335Z,81.81
2023-02-28T05:44:35.481Z,81.90
2023-02-28T05:47:02.608Z,82.15
2023-02-28T05:49:30.135Z,81.78
2023-02-28T05:51:57.329Z,81.77
2023-02-28T05:54:24.452Z,81.74
2023-02-28T05:56:51.520Z,81.79
2023-02-28T05:59:18.606Z,80.97
2023-02-28T06:02:17.440Z,81.30
2023-02-28T06:04:44.698Z,82.04
2023-02-28T06:07:11.856Z,82.10
2023-02-28T06:09:39.053Z,82.23
2023-02-28T06:12:08.386Z,82.24
2023-02-28T06:14:35.638Z,82.38
2023-02-28T06:17:04.038Z,81.65
2023-02-28T06:19:31.741Z,81.59
2023-02-28T06:21:59.631Z,82.22
2023-02-28T06:24:31.587Z,81.92
2023-02-28T06:27:00.147Z,81.83
2023-02-28T06:29:27.396Z,82.56
2023-02-28T06:31:54.548Z,82.37
2023-02-28T06:34:21.760Z,82.14
2023-02-28T06:36:52.926Z,82.13
2023-02-28T06:39:20.546Z,82.27
2023-02-28T06:41:55.313Z,82.59
2023-02-28T06:44:24.291Z,82.62
2023-02-28T06:46:51.591Z,82.38
2023-02-28T06:49:18.964Z,82.34
2023-02-28T06:51:46.363Z,82.67
2023-02-28T06:54:14.179Z,83.15
2023-02-28T06:56:41.464Z,83.05
2023-02-28T06:59:08.649Z,82.87
2023-02-28T07:01:35.945Z,82.75
2023-02-28T07:04:04.151Z,82.49
2023-02-28T07:06:31.656Z,82.77
2023-02-28T07:08:58.735Z,82.61
2023-02-28T07:11:28.954Z,82.75
2023-02-28T07:13:57.572Z,82.52
2023-02-28T07:16:26.227Z,83.11
2023-02-28T07:18:56.703Z,83.13
2023-02-28T07:21:23.883Z,83.29
2023-02-28T07:23:51.094Z,82.68
2023-02-28T07:26:20.221Z,82.98
2023-02-28T07:28:49.028Z,83.11
2023-02-28T07:31:16.893Z,83.08
2023-02-28T07:33:44.530Z,83.33
2023-02-28T07:36:16.487Z,83.22
2023-02-28T07:38:48.104Z,83.31
2023-02-28T07:41:17.736Z,83.75
2023-02-28T07:43:45.769Z,83.38
2023-02-28T07:46:18.344Z,83.58
2023-02-28T07:48:46.300Z,83.24
2023-02-28T07:51:13.889Z,83.90
2023-02-28T07:53:41.116Z,83.75
2023-02-28T07:56:08.582Z,83.58
2023-02-28T07:58:35.827Z,84.15
2023-02-28T08:01:10.876Z,84.54
2023-02-28T08:03:39.321Z,84.52
2023-02-28T08:06:08.357Z,84.50
2023-02-28T08:08:35.578Z,84.74
2023-02-28T08:11:04.513Z,84.73
2023-02-28T08:13:32.207Z,84.81
2023-02-28T08:15:59.752Z,84.62
2023-02-28T08:18:26.903Z,84.35
2023-02-28T08:20:54.017Z,84.54
2023-02-28T08:23:21.198Z,84.23
2023-02-28T08:25:55.956Z,84.13
2023-02-28T08:28:26.034Z,83.66
2023-02-28T08:30:54.960Z,82.96
2023-02-28T08:33:22.599Z,82.09
2023-02-28T08:35:50.142Z,81.49
2023-02-28T08:38:17.295Z,81.12
2023-02-28T08:40:44.396Z,80.51
2023-02-28T08:43:11.664Z,79.94
2023-02-28T08:45:39.070Z,79.20
2023-02-28T08:48:06.328Z,78.75
2023-02-28T08:50:33.682Z,78.39
2023-02-28T08:53:01.227Z,77.96
2023-02-28T08:55:28.334Z,76.99
2023-02-28T08:57:56.183Z,76.43
2023-02-28T09:00:23.800Z,76.04
2023-02-28T09:02:50.962Z,75.74
2023-02-28T09:05:18.043Z,75.37
2023-02-28T09:07:45.175Z,75.23
2023-02-28T09:10:12.380Z,75.19
2023-02-28T09:12:39.582Z,74.37
2023-02-28T09:15:07.502Z,73.97
2023-02-28T09:17:34.670Z,72.74
2023-02-28T09:20:01.758Z,72.00
2023-02-28T09:22:29.008Z,71.91
2023-02-28T09:24:56.301Z,71.46
2023-02-28T09:27:23.459Z,71.23
2023-02-28T09:29:50.733Z,70.87
2023-02-28T09:32:19.301Z,70.03
2023-02-28T09:34:46.406Z,70.07
2023-02-28T09:37:13.562Z,69.70
2023-02-28T09:39:40.734Z,69.08
2023-02-28T09:42:20.135Z,68.78
2023-02-28T09:44:49.116Z,68.96
2023-02-28T09:47:27.612Z,68.70
2023-02-28T09:49:57.742Z,67.49
2023-02-28T09:52:34.052Z,67.24
2023-02-28T09:55:23.564Z,65.30
2023-02-28T09:57:53.255Z,65.67
2023-02-28T10:00:31.338Z,65.24
2023-02-28T10:03:36.454Z,63.85
2023-02-28T10:06:18.404Z,63.85
2023-02-28T10:09:10.455Z,63.10
2023-02-28T10:11:40.869Z,63.39
2023-02-28T10:14:26.321Z,61.96
2023-02-28T10:17:09.930Z,62.78
2023-02-28T10:19:45.975Z,63.20
2023-02-28T10:22:13.091Z,62.58
2023-02-28T10:24:55.170Z,62.62
2023-02-28T10:27:29.315Z,62.83
2023-02-28T10:30:00.506Z,62.96
2023-02-28T10:32:34.863Z,62.86
2023-02-28T10:35:17.895Z,63.25
2023-02-28T10:37:48.361Z,63.00
2023-02-28T10:40:21.727Z,62.76
2023-02-28T10:43:14.636Z,63.21
2023-02-28T10:45:55.454Z,63.00
2023-02-28T10:48:22.472Z,63.33
2023-02-28T10:50:51.012Z,63.01
2023-02-28T10:53:27.192Z,62.34
2023-02-28T10:56:14.309Z,61.98
2023-02-28T10:59:00.068Z,61.84
2023-02-28T11:01:33.755Z,61.08
2023-02-28T11:04:01.312Z,60.45
2023-02-28T11:06:33.392Z,60.38
2023-02-28T11:09:07.268Z,60.20
2023-02-28T11:11:44.963Z,59.69
2023-02-28T11:14:25.499Z,59.50
2023-02-28T11:16:53.785Z,59.18
2023-02-28T11:19:27.301Z,58.62
2023-02-28T11:22:01.571Z,58.63
2023-02-28T11:24:32.858Z,59.01
2023-02-28T11:27:00.007Z,58.88
2023-02-28T11:29:30.569Z,58.56
2023-02-28T11:32:14.808Z,58.89
2023-02-28T11:34:43.089Z,58.39
2023-02-28T11:37:16.735Z,57.07
2023-02-28T11:39:45.216Z,57.48
2023-02-28T11:42:40.472Z,57.33
2023-02-28T11:45:17.171Z,57.23
2023-02-28T11:47:57.233Z,57.27
2023-02-28T11:50:43.646Z,57.88
2023-02-28T11:53:31.782Z,57.55
2023-02-28T11:56:20.451Z,57.76
2023-02-28T11:58:55.450Z,57.80
2023-02-28T12:01:39.750Z,57.60
2023-02-28T12:04:25.236Z,56.43
2023-02-28T12:07:09.639Z,57.21
2023-02-28T12:09:51.145Z,57.64
2023-02-28T12:12:58.625Z,56.99
2023-02-28T12:16:03.381Z,57.16
2023-02-28T12:18:53.220Z,57.48
2023-02-28T12:21:46.245Z,57.10
2023-02-28T12:24:31.431Z,57.33
2023-02-28T12:27:04.011Z,57.52
2023-02-28T12:29:58.214Z,57.28
2023-02-28T12:32:32.768Z,57.99
2023-02-28T12:35:07.653Z,57.24
2023-02-28T12:37:47.379Z,57.38
2023-02-28T12:40:20.309Z,56.83
2023-02-28T12:43:00.113Z,56.59
2023-02-28T12:45:57.044Z,56.06
2023-02-28T12:48:41.740Z,56.40
2023-02-28T12:51:09.835Z,56.72
2023-02-28T12:53:50.985Z,56.47
2023-02-28T12:56:29.337Z,57.06
2023-02-28T12:59:00.692Z,56.78
2023-02-28T13:01:35.351Z,57.57
2023-02-28T13:04:24.373Z,57.06
2023-02-28T13:07:28.566Z,56.89
2023-02-28T13:09:59.097Z,56.15
2023-02-28T13:12:28.073Z,56.16
2023-02-28T13:15:05.609Z,56.90
2023-02-28T13:17:33.689Z,56.52
2023-02-28T13:20:01.538Z,56.79
2023-02-28T13:22:46.749Z,56.25
2023-02-28T13:25:35.575Z,55.79
2023-02-28T13:28:09.693Z,56.13
2023-02-28T13:30:59.845Z,56.76
2023-02-28T13:33:40.134Z,55.72
2023-02-28T13:36:11.879Z,56.48
2023-02-28T13:38:49.067Z,56.87
2023-02-28T13:41:37.301Z,55.61
2023-02-28T13:44:18.873Z,55.99
2023-02-28T13:46:49.614Z,56.37
2023-02-28T13:49:27.142Z,55.56
2023-02-28T13:52:15.361Z,55.67
2023-02-28T13:55:25.148Z,56.12
2023-02-28T13:58:01.256Z,56.22
2023-02-28T14:00:55.946Z,55.89
2023-02-28T14:03:56.685Z,55.49
2023-02-28T14:06:29.342Z,55.93
2023-02-28T14:09:21.614Z,55.40
2023-02-28T14:11:49.022Z,55.58
2023-02-28T14:14:37.493Z,55.50
2023-02-28T14:17:08.597Z,54.76
2023-02-28T14:19:38.451Z,54.89
2023-02-28T14:22:41.243Z,54.99
2023-02-28T14:25:25.872Z,55.24
2023-02-28T14:28:15.285Z,56.33
2023-02-28T14:31:10.853Z,56.74
2023-02-28T14:34:13.986Z,57.22
2023-02-28T14:36:43.595Z,57.60
2023-02-28T14:39:18.001Z,58.19
2023-02-28T14:41:46.218Z,57.94
2023-02-28T14:44:23.818Z,57.49
2023-02-28T14:46:56.309Z,58.30
2023-02-28T14:49:29.750Z,58.53
2023-02-28T14:52:25.572Z,58.15
2023-02-28T14:54:59.288Z,58.97
2023-02-28T14:57:34.029Z,59.13
2023-02-28T15:00:24.362Z,58.75
2023-02-28T15:02:51.413Z,59.49
2023-02-28T15:05:31.314Z,59.17
2023-02-28T15:08:14.338Z,59.08
2023-02-28T15:11:28.152Z,59.42
2023-02-28T15:13:59.230Z,59.04
2023-02-28T15:16:33.403Z,59.07
2023-02-28T15:19:14.297Z,59.07
2023-02-28T15:21:46.702Z,59.30
2023-02-28T15:24:25.799Z,59.28
2023-02-28T15:26:59.223Z,59.68
2023-02-28T15:29:29.288Z,59.28
2023-02-28T15:32:06.332Z,60.07
2023-02-28T15:34:43.299Z,60.10
2023-02-28T15:37:34.358Z,59.59
2023-02-28T15:40:42.176Z,59.88
2023-02-28T15:43:24.246Z,59.65
2023-02-28T15:46:01.404Z,59.59
2023-02-28T15:48:39.063Z,59.80
2023-02-28T15:51:22.036Z,59.98
2023-02-28T15:54:02.306Z,59.52
2023-02-28T15:56:39.475Z,59.53
2023-02-28T15:59:08.887Z,60.00
2023-02-28T16:01:39.531Z,59.95
2023-02-28T16:04:15.246Z,60.18
2023-02-28T16:06:43.441Z,60.88
2023-02-28T16:09:14.723Z,60.88
2023-02-28T16:11:48.323Z,61.36
2023-02-28T16:14:24.690Z,61.39
2023-02-28T16:16:54.921Z,61.72
2023-02-28T16:19:22.302Z,62.17
2023-02-28T16:21:50.056Z,63.04
2023-02-28T16:24:17.207Z,62.69
2023-02-28T16:26:49.442Z,63.17
2023-02-28T16:29:25.383Z,62.54
2023-02-28T16:31:52.536Z,63.04
2023-02-28T16:34:19.730Z,63.31
2023-02-28T16:36:49.735Z,63.77
2023-02-28T16:39:17.057Z,64.23
2023-02-28T16:41:46.560Z,64.53
2023-02-28T16:44:25.402Z,64.99
2023-02-28T16:46:52.496Z,65.02
2023-02-28T16:49:19.702Z,64.69
2023-02-28T16:51:46.863Z,64.51
2023-02-28T16:54:14.041Z,64.31
2023-02-28T16:56:46.053Z,64.91
2023-02-28T16:59:14.770Z,65.12
2023-02-28T17:01:41.914Z,65.48
2023-02-28T17:04:12.003Z,66.04
2023-02-28T17:06:39.310Z,66.18
2023-02-28T17:09:06.630Z,66.81
2023-02-28T17:11:34.023Z,67.38
2023-02-28T17:14:01.226Z,67.73
2023-02-28T17:16:33.830Z,68.32
2023-02-28T17:19:03.749Z,69.37
2023-02-28T17:21:32.255Z,69.27
2023-02-28T17:23:59.971Z,69.51
2023-02-28T17:26:29.000Z,69.99
2023-02-28T17:28:58.208Z,69.74
2023-02-28T17:31:27.109Z,69.92
2023-02-28T17:33:55.546Z,70.30
2023-02-28T17:36:26.917Z,70.50
2023-02-28T17:38:56.375Z,70.56
2023-02-28T17:41:23.833Z,71.34
2023-02-28T17:43:51.785Z,71.29
2023-02-28T17:46:24.340Z,71.40
2023-02-28T17:48:53.345Z,71.80
2023-02-28T17:51:22.544Z,71.59
2023-02-28T17:53:50.317Z,71.96
2023-02-28T17:56:24.384Z,72.17
2023-02-28T17:58:53.581Z,72.44
2023-02-28T18:01:22.159Z,72.56
2023-02-28T18:03:50.054Z,73.31
2023-02-28T18:06:28.730Z,72.66
2023-02-28T18:08:56.254Z,73.72
2023-02-28T18:11:24.555Z,73.74
2023-02-28T18:13:54.419Z,73.81
2023-02-28T18:16:23.103Z,73.27
2023-02-28T18:18:51.026Z,73.66
2023-02-28T18:21:18.257Z,73.31
2023-02-28T18:23:48.616Z,73.63
2023-02-28T18:26:17.586Z,73.34
2023-02-28T18:28:45.625Z,73.66
2023-02-28T18:31:16.334Z,74.46
2023-02-28T18:33:45.428Z,74.86
2023-02-28T18:36:12.456Z,74.64
2023-02-28T18:38:40.202Z,75.30
2023-02-28T18:41:08.530Z,75.10
2023-02-28T18:43:38.660Z,75.53
2023-02-28T18:46:06.328Z,75.11
2023-02-28T18:48:33.826Z,75.07
2023-02-28T18:51:07.012Z,75.73
2023-02-28T18:53:36.407Z,75.40
2023-02-28T18:56:04.747Z,76.04
2023-02-28T18:58:33.729Z,75.97
2023-02-28T19:01:04.937Z,76.37
2023-02-28T19:03:32.180Z,76.41
2023-02-28T19:06:00.656Z,76.34
2023-02-28T19:08:28.288Z,76.44
2023-02-28T19:10:55.657Z,76.14
2023-02-28T19:13:22.695Z,76.29
2023-02-28T19:15:49.990Z,76.74
2023-02-28T19:18:17.131Z,76.10
2023-02-28T19:20:44.134Z,76.24
2023-02-28T19:23:13.203Z,75.70
2023-02-28T19:25:43.349Z,75.62
2023-02-28T19:28:10.456Z,76.00
2023-02-28T19:30:38.144Z,75.86
2023-02-28T19:33:05.344Z,75.57
2023-02-28T19:35:32.531Z,75.95
2023-02-28T19:37:59.984Z,75.88
2023-02-28T19:40:27.232Z,76.19
2023-02-28T19:42:54.374Z,76.17
2023-02-28T19:45:21.540Z,76.19
2023-02-28T19:47:48.682Z,77.36
2023-02-28T19:50:16.467Z,76.80
2023-02-28T19:52:43.696Z,77.30
2023-02-28T19:55:11.409Z,76.87
2023-02-28T19:57:38.532Z,76.58
2023-02-28T20:00:06.260Z,76.48
2023-02-28T20:02:39.543Z,77.23
2023-02-28T20:05:07.882Z,76.51
2023-02-28T20:07:35.939Z,76.68
2023-02-28T20:10:03.148Z,76.62
2023-02-28T20:12:30.247Z,77.10
2023-02-28T20:14:57.527Z,77.10
2023-02-28T20:17:25.110Z,77.20
2023-02-28T20:19:52.149Z,77.15
2023-02-28T20:22:19.338Z,77.40
2023-02-28T20:24:48.883Z,77.13
2023-02-28T20:27:16.211Z,77.69
2023-02-28T20:29:43.363Z,77.67
2023-02-28T20:32:10.644Z,77.20
2023-02-28T20:34:37.800Z,77.05
2023-02-28T20:37:04.974Z,77.10
2023-02-28T20:39:32.087Z,77.02
2023-02-28T20:41:59.194Z,78.55
2023-02-28T20:44:26.506Z,78.26
2023-02-28T20:46:53.634Z,77.70
2023-02-28T20:49:21.062Z,77.97
2023-02-28T20:51:48.261Z,78.52
2023-02-28T20:54:16.507Z,78.81
2023-02-28T20:56:43.694Z,78.45
2023-02-28T20:59:12.569Z,78.68
2023-02-28T21:01:40.941Z,78.57
2023-02-28T21:04:08.413Z,78.18
2023-02-28T21:06:43.370Z,78.43
2023-02-28T21:09:13.629Z,78.57
2023-02-28T21:11:41.508Z,78.52
2023-02-28T21:14:13.098Z,77.89
2023-02-28T21:16:40.655Z,78.28
2023-02-28T21:19:07.858Z,78.69
2023-02-28T21:21:40.217Z,78.68
2023-02-28T21:24:07.762Z,78.90
2023-02-28T21:26:34.820Z,78.62
2023-02-28T21:29:03.135Z,78.91
2023-02-28T21:31:34.300Z,78.91
2023-02-28T21:34:03.269Z,78.90
2023-02-28T21:36:33.251Z,79.13
2023-02-28T21:39:04.184Z,79.41
2023-02-28T21:41:31.454Z,79.57
2023-02-28T21:43:58.675Z,78.91
2023-02-28T21:46:29.384Z,79.66
2023-02-28T21:48:57.571Z,79.49
2023-02-28T21:51:28.234Z,79.32
2023-02-28T21:53:57.214Z,78.76
2023-02-28T21:56:26.637Z,79.28
2023-02-28T21:59:00.800Z,79.27
2023-02-28T22:01:37.136Z,78.86
2023-02-28T22:04:07.423Z,79.95
2023-02-28T22:06:36.415Z,79.87
2023-02-28T22:09:06.270Z,79.89
2023-02-28T22:11:34.746Z,80.45
2023-02-28T22:14:02.467Z,79.94
2023-02-28T22:16:37.928Z,80.66
2023-02-28T22:19:15.839Z,80.61
2023-02-28T22:21:43.180Z,80.86
2023-02-28T22:24:11.331Z,80.38
2023-02-28T22:26:38.562Z,81.22
2023-02-28T22:29:06.373Z,81.58
2023-02-28T22:31:36.150Z,81.31
2023-02-28T22:34:06.993Z,80.93
2023-02-28T22:36:34.885Z,80.87
2023-02-28T22:39:02.364Z,80.94
2023-02-28T22:41:30.159Z,80.49
2023-02-28T22:44:00.384Z,81.33
2023-02-28T22:46:29.696Z,80.65
2023-02-28T22:49:01.902Z,80.61
2023-02-28T22:51:30.844Z,80.76
2023-02-28T22:53:58.801Z,81.06
2023-02-28T22:56:28.161Z,80.60
2023-02-28T22:58:57.812Z,80.36
2023-02-28T23:01:27.682Z,80.71
2023-02-28T23:03:55.210Z,81.59
2023-02-28T23:06:31.071Z,81.14
2023-02-28T23:09:01.965Z,81.29
2023-02-28T23:11:32.218Z,80.84
2023-02-28T23:13:59.902Z,80.75
2023-02-28T23:16:38.694Z,81.20
2023-02-28T23:19:11.006Z,80.93
2023-02-28T23:21:39.450Z,81.14
2023-02-28T23:24:11.545Z,80.95
2023-02-28T23:26:44.961Z,81.13
2023-02-28T23:29:13.333Z,81.26
2023-02-28T23:31:40.984Z,81.04
2023-02-28T23:34:08.414Z,81.31
2023-02-28T23:36:35.620Z,81.23
2023-02-28T23:39:02.773Z,81.16
2023-02-28T23:41:29.971Z,81.62
2023-02-28T23:43:57.010Z,81.32
2023-02-28T23:46:24.377Z,81.28
2023-02-28T23:48:51.622Z,80.89
2023-02-28T23:51:21.767Z,81.35
2023-02-28T23:53:50.108Z,81.58
2023-02-28T23:56:21.468Z,81.14
2023-02-28T23:58:49.742Z,81.21
